sensor_id;sensor_type;location;lat;lon;timestamp;P1;durP1;ratioP1;P2;durP2;ratioP2
12816;SDS011;6473;51.552;6.716;2023-05-19T00:01:11;10.10;;;4.10;;
12816;SDS011;6473;51.552;6.716;2023-05-19T00:03:47;3.75;;;3.10;;
12816;SDS011;6473;51.552;6.716;2023-05-19T00:06:17;4.65;;;2.55;;
12816;SDS011;6473;51.552;6.716;2023-05-19T00:08:50;4.53;;;2.85;;
12816;SDS011;6473;51.552;6.716;2023-05-19T00:11:21;4.70;;;3.13;;
12816;SDS011;6473;51.552;6.716;2023-05-19T00:13:50;5.38;;;3.20;;
12816;SDS011;6473;51.552;6.716;2023-05-19T00:16:18;4.50;;;2.90;;
12816;SDS011;6473;51.552;6.716;2023-05-19T00:18:46;5.20;;;2.70;;
12816;SDS011;6473;51.552;6.716;2023-05-19T00:21:13;4.30;;;3.90;;
12816;SDS011;6473;51.552;6.716;2023-05-19T00:23:40;5.20;;;4.10;;
12816;SDS011;6473;51.552;6.716;2023-05-19T00:26:09;8.98;;;4.32;;
12816;SDS011;6473;51.552;6.716;2023-05-19T00:28:37;8.20;;;4.35;;
12816;SDS011;6473;51.552;6.716;2023-05-19T00:31:04;7.63;;;4.60;;
12816;SDS011;6473;51.552;6.716;2023-05-19T00:33:31;6.35;;;4.53;;
12816;SDS011;6473;51.552;6.716;2023-05-19T00:35:59;5.97;;;4.82;;
12816;SDS011;6473;51.552;6.716;2023-05-19T00:38:27;6.60;;;4.38;;
12816;SDS011;6473;51.552;6.716;2023-05-19T00:40:54;6.72;;;3.58;;
12816;SDS011;6473;51.552;6.716;2023-05-19T00:43:22;5.53;;;3.58;;
12816;SDS011;6473;51.552;6.716;2023-05-19T00:45:49;4.00;;;3.50;;
12816;SDS011;6473;51.552;6.716;2023-05-19T00:48:16;4.22;;;2.92;;
12816;SDS011;6473;51.552;6.716;2023-05-19T00:50:43;5.25;;;3.08;;
12816;SDS011;6473;51.552;6.716;2023-05-19T00:53:11;7.03;;;3.53;;
12816;SDS011;6473;51.552;6.716;2023-05-19T00:55:39;4.80;;;3.25;;
12816;SDS011;6473;51.552;6.716;2023-05-19T00:58:06;8.25;;;3.75;;
12816;SDS011;6473;51.552;6.716;2023-05-19T01:00:36;7.80;;;3.47;;
12816;SDS011;6473;51.552;6.716;2023-05-19T01:03:03;4.20;;;3.20;;
12816;SDS011;6473;51.552;6.716;2023-05-19T01:05:35;4.47;;;3.67;;
12816;SDS011;6473;51.552;6.716;2023-05-19T01:08:05;6.57;;;3.50;;
12816;SDS011;6473;51.552;6.716;2023-05-19T01:10:32;3.42;;;3.08;;
12816;SDS011;6473;51.552;6.716;2023-05-19T01:12:59;6.03;;;3.60;;
12816;SDS011;6473;51.552;6.716;2023-05-19T01:15:28;6.95;;;3.25;;
12816;SDS011;6473;51.552;6.716;2023-05-19T01:18:00;5.70;;;3.40;;
12816;SDS011;6473;51.552;6.716;2023-05-19T01:20:34;4.60;;;3.40;;
12816;SDS011;6473;51.552;6.716;2023-05-19T01:23:09;4.80;;;3.45;;
12816;SDS011;6473;51.552;6.716;2023-05-19T01:29:11;4.47;;;3.47;;
12816;SDS011;6473;51.552;6.716;2023-05-19T01:31:53;6.22;;;3.65;;
12816;SDS011;6473;51.552;6.716;2023-05-19T01:34:24;5.55;;;3.70;;
12816;SDS011;6473;51.552;6.716;2023-05-19T01:36:53;4.43;;;3.75;;
12816;SDS011;6473;51.552;6.716;2023-05-19T01:39:21;5.95;;;3.78;;
12816;SDS011;6473;51.552;6.716;2023-05-19T01:41:48;6.43;;;3.92;;
12816;SDS011;6473;51.552;6.716;2023-05-19T01:44:17;5.32;;;3.90;;
12816;SDS011;6473;51.552;6.716;2023-05-19T01:46:46;4.80;;;3.88;;
12816;SDS011;6473;51.552;6.716;2023-05-19T01:49:15;4.28;;;3.67;;
12816;SDS011;6473;51.552;6.716;2023-05-19T01:51:43;6.90;;;4.10;;
12816;SDS011;6473;51.552;6.716;2023-05-19T01:54:10;6.28;;;4.18;;
12816;SDS011;6473;51.552;6.716;2023-05-19T01:56:48;6.88;;;4.18;;
12816;SDS011;6473;51.552;6.716;2023-05-19T01:59:23;6.20;;;4.18;;
12816;SDS011;6473;51.552;6.716;2023-05-19T02:02:02;3.80;;;3.50;;
12816;SDS011;6473;51.552;6.716;2023-05-19T02:04:41;4.22;;;3.70;;
12816;SDS011;6473;51.552;6.716;2023-05-19T02:07:14;6.45;;;4.07;;
12816;SDS011;6473;51.552;6.716;2023-05-19T02:09:51;7.18;;;4.05;;
12816;SDS011;6473;51.552;6.716;2023-05-19T02:12:27;5.65;;;4.30;;
12816;SDS011;6473;51.552;6.716;2023-05-19T02:15:02;5.55;;;4.35;;
12816;SDS011;6473;51.552;6.716;2023-05-19T02:17:33;5.40;;;3.92;;
12816;SDS011;6473;51.552;6.716;2023-05-19T02:20:06;4.93;;;3.63;;
12816;SDS011;6473;51.552;6.716;2023-05-19T02:22:33;5.15;;;4.40;;
12816;SDS011;6473;51.552;6.716;2023-05-19T02:25:01;7.25;;;4.10;;
12816;SDS011;6473;51.552;6.716;2023-05-19T02:27:31;8.20;;;4.00;;
12816;SDS011;6473;51.552;6.716;2023-05-19T02:29:58;6.47;;;3.70;;
12816;SDS011;6473;51.552;6.716;2023-05-19T02:32:25;5.05;;;4.20;;
12816;SDS011;6473;51.552;6.716;2023-05-19T02:34:52;7.05;;;4.40;;
12816;SDS011;6473;51.552;6.716;2023-05-19T02:37:21;8.20;;;4.35;;
12816;SDS011;6473;51.552;6.716;2023-05-19T02:39:49;9.40;;;5.05;;
12816;SDS011;6473;51.552;6.716;2023-05-19T02:42:16;7.18;;;5.00;;
12816;SDS011;6473;51.552;6.716;2023-05-19T02:44:43;7.53;;;5.18;;
12816;SDS011;6473;51.552;6.716;2023-05-19T02:47:10;10.82;;;5.57;;
12816;SDS011;6473;51.552;6.716;2023-05-19T02:49:37;6.78;;;4.85;;
12816;SDS011;6473;51.552;6.716;2023-05-19T02:52:04;6.57;;;4.78;;
12816;SDS011;6473;51.552;6.716;2023-05-19T02:54:33;5.38;;;4.75;;
12816;SDS011;6473;51.552;6.716;2023-05-19T02:57:00;5.10;;;4.30;;
12816;SDS011;6473;51.552;6.716;2023-05-19T02:59:27;7.18;;;4.93;;
12816;SDS011;6473;51.552;6.716;2023-05-19T03:01:55;6.45;;;4.40;;
12816;SDS011;6473;51.552;6.716;2023-05-19T03:04:24;8.43;;;4.55;;
12816;SDS011;6473;51.552;6.716;2023-05-19T03:06:51;5.53;;;4.43;;
12816;SDS011;6473;51.552;6.716;2023-05-19T03:09:18;6.40;;;4.55;;
12816;SDS011;6473;51.552;6.716;2023-05-19T03:11:46;5.90;;;4.90;;
12816;SDS011;6473;51.552;6.716;2023-05-19T03:14:13;9.10;;;4.63;;
12816;SDS011;6473;51.552;6.716;2023-05-19T03:16:40;6.85;;;4.38;;
12816;SDS011;6473;51.552;6.716;2023-05-19T03:19:07;8.35;;;5.18;;
12816;SDS011;6473;51.552;6.716;2023-05-19T03:21:34;6.55;;;5.05;;
12816;SDS011;6473;51.552;6.716;2023-05-19T03:24:01;6.25;;;4.97;;
12816;SDS011;6473;51.552;6.716;2023-05-19T03:26:28;6.78;;;5.20;;
12816;SDS011;6473;51.552;6.716;2023-05-19T03:28:57;7.50;;;5.22;;
12816;SDS011;6473;51.552;6.716;2023-05-19T03:31:24;6.13;;;5.47;;
12816;SDS011;6473;51.552;6.716;2023-05-19T03:33:51;5.80;;;4.72;;
12816;SDS011;6473;51.552;6.716;2023-05-19T03:36:20;7.10;;;5.30;;
12816;SDS011;6473;51.552;6.716;2023-05-19T03:38:47;7.35;;;4.97;;
12816;SDS011;6473;51.552;6.716;2023-05-19T03:41:14;6.35;;;4.97;;
12816;SDS011;6473;51.552;6.716;2023-05-19T03:43:41;6.65;;;5.18;;
12816;SDS011;6473;51.552;6.716;2023-05-19T03:46:10;10.10;;;5.45;;
12816;SDS011;6473;51.552;6.716;2023-05-19T03:48:45;8.02;;;5.13;;
12816;SDS011;6473;51.552;6.716;2023-05-19T03:51:18;6.70;;;5.15;;
12816;SDS011;6473;51.552;6.716;2023-05-19T03:53:47;8.20;;;5.50;;
12816;SDS011;6473;51.552;6.716;2023-05-19T03:56:13;6.57;;;5.10;;
12816;SDS011;6473;51.552;6.716;2023-05-19T03:58:42;9.07;;;5.30;;
12816;SDS011;6473;51.552;6.716;2023-05-19T04:01:12;10.60;;;5.60;;
12816;SDS011;6473;51.552;6.716;2023-05-19T04:03:39;11.57;;;5.78;;
12816;SDS011;6473;51.552;6.716;2023-05-19T04:06:06;6.75;;;5.50;;
12816;SDS011;6473;51.552;6.716;2023-05-19T04:08:33;9.88;;;5.35;;
12816;SDS011;6473;51.552;6.716;2023-05-19T04:11:01;8.30;;;5.18;;
12816;SDS011;6473;51.552;6.716;2023-05-19T04:13:28;6.70;;;5.53;;
12816;SDS011;6473;51.552;6.716;2023-05-19T04:15:55;8.30;;;5.85;;
12816;SDS011;6473;51.552;6.716;2023-05-19T04:18:23;6.00;;;5.40;;
12816;SDS011;6473;51.552;6.716;2023-05-19T04:20:50;6.60;;;5.57;;
12816;SDS011;6473;51.552;6.716;2023-05-19T04:23:18;5.82;;;5.22;;
12816;SDS011;6473;51.552;6.716;2023-05-19T04:25:45;10.00;;;5.07;;
12816;SDS011;6473;51.552;6.716;2023-05-19T04:28:12;10.10;;;5.40;;
12816;SDS011;6473;51.552;6.716;2023-05-19T04:30:40;7.68;;;5.53;;
12816;SDS011;6473;51.552;6.716;2023-05-19T04:33:07;8.82;;;5.75;;
12816;SDS011;6473;51.552;6.716;2023-05-19T04:35:36;7.57;;;5.50;;
12816;SDS011;6473;51.552;6.716;2023-05-19T04:38:04;9.10;;;5.70;;
12816;SDS011;6473;51.552;6.716;2023-05-19T04:40:32;5.72;;;5.15;;
12816;SDS011;6473;51.552;6.716;2023-05-19T04:42:59;7.88;;;5.45;;
12816;SDS011;6473;51.552;6.716;2023-05-19T04:45:27;9.38;;;5.93;;
12816;SDS011;6473;51.552;6.716;2023-05-19T04:47:58;12.70;;;6.22;;
12816;SDS011;6473;51.552;6.716;2023-05-19T04:50:25;13.13;;;6.28;;
12816;SDS011;6473;51.552;6.716;2023-05-19T04:52:57;9.77;;;5.38;;
12816;SDS011;6473;51.552;6.716;2023-05-19T04:55:24;9.02;;;6.05;;
12816;SDS011;6473;51.552;6.716;2023-05-19T04:57:51;9.43;;;5.43;;
12816;SDS011;6473;51.552;6.716;2023-05-19T05:00:19;7.35;;;5.28;;
12816;SDS011;6473;51.552;6.716;2023-05-19T05:03:02;9.25;;;5.43;;
12816;SDS011;6473;51.552;6.716;2023-05-19T05:05:31;10.43;;;6.20;;
12816;SDS011;6473;51.552;6.716;2023-05-19T05:08:01;8.43;;;5.63;;
12816;SDS011;6473;51.552;6.716;2023-05-19T05:10:33;7.85;;;4.95;;
12816;SDS011;6473;51.552;6.716;2023-05-19T05:13:00;9.57;;;6.00;;
12816;SDS011;6473;51.552;6.716;2023-05-19T05:15:28;8.57;;;5.93;;
12816;SDS011;6473;51.552;6.716;2023-05-19T05:17:58;9.65;;;5.47;;
12816;SDS011;6473;51.552;6.716;2023-05-19T05:20:26;8.85;;;6.15;;
12816;SDS011;6473;51.552;6.716;2023-05-19T05:22:53;6.45;;;5.65;;
12816;SDS011;6473;51.552;6.716;2023-05-19T05:25:23;7.45;;;5.03;;
12816;SDS011;6473;51.552;6.716;2023-05-19T05:27:50;8.00;;;5.25;;
12816;SDS011;6473;51.552;6.716;2023-05-19T05:30:17;7.70;;;5.20;;
12816;SDS011;6473;51.552;6.716;2023-05-19T05:32:45;6.00;;;5.40;;
12816;SDS011;6473;51.552;6.716;2023-05-19T05:35:26;10.77;;;5.20;;
12816;SDS011;6473;51.552;6.716;2023-05-19T05:37:53;7.85;;;5.30;;
12816;SDS011;6473;51.552;6.716;2023-05-19T05:40:20;10.68;;;5.25;;
12816;SDS011;6473;51.552;6.716;2023-05-19T05:42:49;11.63;;;5.43;;
12816;SDS011;6473;51.552;6.716;2023-05-19T05:45:18;5.85;;;4.88;;
12816;SDS011;6473;51.552;6.716;2023-05-19T05:47:45;5.60;;;4.68;;
12816;SDS011;6473;51.552;6.716;2023-05-19T05:50:13;7.85;;;5.05;;
12816;SDS011;6473;51.552;6.716;2023-05-19T05:52:41;7.45;;;4.65;;
12816;SDS011;6473;51.552;6.716;2023-05-19T05:55:12;6.28;;;4.63;;
12816;SDS011;6473;51.552;6.716;2023-05-19T05:57:42;7.15;;;4.60;;
12816;SDS011;6473;51.552;6.716;2023-05-19T06:00:10;4.80;;;4.28;;
12816;SDS011;6473;51.552;6.716;2023-05-19T06:02:49;6.32;;;4.78;;
12816;SDS011;6473;51.552;6.716;2023-05-19T06:05:17;6.85;;;4.28;;
12816;SDS011;6473;51.552;6.716;2023-05-19T06:07:46;4.78;;;4.38;;
12816;SDS011;6473;51.552;6.716;2023-05-19T06:10:19;6.25;;;4.13;;
12816;SDS011;6473;51.552;6.716;2023-05-19T06:12:48;8.70;;;4.30;;
12816;SDS011;6473;51.552;6.716;2023-05-19T06:15:16;5.38;;;4.18;;
12816;SDS011;6473;51.552;6.716;2023-05-19T06:18:15;8.30;;;4.20;;
12816;SDS011;6473;51.552;6.716;2023-05-19T06:20:46;7.35;;;3.78;;
12816;SDS011;6473;51.552;6.716;2023-05-19T06:23:13;6.60;;;3.80;;
12816;SDS011;6473;51.552;6.716;2023-05-19T06:25:40;6.10;;;3.95;;
12816;SDS011;6473;51.552;6.716;2023-05-19T06:28:07;4.90;;;3.60;;
12816;SDS011;6473;51.552;6.716;2023-05-19T06:30:35;6.88;;;3.90;;
12816;SDS011;6473;51.552;6.716;2023-05-19T06:33:16;6.10;;;3.38;;
12816;SDS011;6473;51.552;6.716;2023-05-19T06:35:43;5.65;;;3.72;;
12816;SDS011;6473;51.552;6.716;2023-05-19T06:38:10;3.58;;;3.08;;
12816;SDS011;6473;51.552;6.716;2023-05-19T06:40:36;4.95;;;3.67;;
12816;SDS011;6473;51.552;6.716;2023-05-19T06:43:03;6.72;;;3.60;;
12816;SDS011;6473;51.552;6.716;2023-05-19T06:45:51;5.57;;;3.50;;
12816;SDS011;6473;51.552;6.716;2023-05-19T06:48:18;6.80;;;3.28;;
12816;SDS011;6473;51.552;6.716;2023-05-19T06:50:46;5.57;;;3.85;;
12816;SDS011;6473;51.552;6.716;2023-05-19T06:53:15;5.88;;;3.00;;
12816;SDS011;6473;51.552;6.716;2023-05-19T06:55:42;5.50;;;3.30;;
12816;SDS011;6473;51.552;6.716;2023-05-19T06:58:11;5.72;;;3.30;;
12816;SDS011;6473;51.552;6.716;2023-05-19T07:00:38;5.40;;;2.80;;
12816;SDS011;6473;51.552;6.716;2023-05-19T07:03:09;7.45;;;3.25;;
12816;SDS011;6473;51.552;6.716;2023-05-19T07:05:36;6.80;;;3.10;;
12816;SDS011;6473;51.552;6.716;2023-05-19T07:08:03;6.18;;;2.92;;
12816;SDS011;6473;51.552;6.716;2023-05-19T07:10:33;5.07;;;2.78;;
12816;SDS011;6473;51.552;6.716;2023-05-19T07:13:04;4.70;;;2.55;;
12816;SDS011;6473;51.552;6.716;2023-05-19T07:15:32;4.68;;;2.88;;
12816;SDS011;6473;51.552;6.716;2023-05-19T07:17:59;5.53;;;2.42;;
12816;SDS011;6473;51.552;6.716;2023-05-19T07:20:27;6.60;;;3.15;;
12816;SDS011;6473;51.552;6.716;2023-05-19T07:22:55;5.38;;;2.58;;
12816;SDS011;6473;51.552;6.716;2023-05-19T07:25:23;3.83;;;2.38;;
12816;SDS011;6473;51.552;6.716;2023-05-19T07:27:51;3.65;;;2.33;;
12816;SDS011;6473;51.552;6.716;2023-05-19T07:30:18;8.27;;;2.72;;
12816;SDS011;6473;51.552;6.716;2023-05-19T07:32:44;4.13;;;2.45;;
12816;SDS011;6473;51.552;6.716;2023-05-19T07:35:11;3.63;;;2.45;;
12816;SDS011;6473;51.552;6.716;2023-05-19T07:37:40;4.93;;;2.65;;
12816;SDS011;6473;51.552;6.716;2023-05-19T07:40:07;4.63;;;2.45;;
12816;SDS011;6473;51.552;6.716;2023-05-19T07:42:35;5.78;;;2.60;;
12816;SDS011;6473;51.552;6.716;2023-05-19T07:45:02;4.78;;;2.47;;
12816;SDS011;6473;51.552;6.716;2023-05-19T07:47:30;3.97;;;2.40;;
12816;SDS011;6473;51.552;6.716;2023-05-19T07:49:58;3.20;;;2.00;;
12816;SDS011;6473;51.552;6.716;2023-05-19T07:52:25;4.50;;;2.33;;
12816;SDS011;6473;51.552;6.716;2023-05-19T07:54:53;6.03;;;2.90;;
12816;SDS011;6473;51.552;6.716;2023-05-19T07:57:20;5.00;;;2.28;;
12816;SDS011;6473;51.552;6.716;2023-05-19T07:59:47;5.07;;;2.33;;
12816;SDS011;6473;51.552;6.716;2023-05-19T08:02:14;3.58;;;2.42;;
12816;SDS011;6473;51.552;6.716;2023-05-19T08:04:42;3.03;;;2.30;;
12816;SDS011;6473;51.552;6.716;2023-05-19T08:07:09;6.05;;;1.77;;
12816;SDS011;6473;51.552;6.716;2023-05-19T08:09:36;4.22;;;2.20;;
12816;SDS011;6473;51.552;6.716;2023-05-19T08:12:05;2.35;;;1.95;;
12816;SDS011;6473;51.552;6.716;2023-05-19T08:14:32;5.28;;;2.45;;
12816;SDS011;6473;51.552;6.716;2023-05-19T08:16:59;5.32;;;1.90;;
12816;SDS011;6473;51.552;6.716;2023-05-19T08:19:26;7.03;;;2.47;;
12816;SDS011;6473;51.552;6.716;2023-05-19T08:21:53;3.42;;;2.08;;
12816;SDS011;6473;51.552;6.716;2023-05-19T08:24:20;5.13;;;1.85;;
12816;SDS011;6473;51.552;6.716;2023-05-19T08:26:47;4.50;;;1.80;;
12816;SDS011;6473;51.552;6.716;2023-05-19T08:29:15;4.82;;;2.05;;
12816;SDS011;6473;51.552;6.716;2023-05-19T08:31:42;3.13;;;2.08;;
12816;SDS011;6473;51.552;6.716;2023-05-19T08:34:09;3.58;;;1.77;;
12816;SDS011;6473;51.552;6.716;2023-05-19T08:36:36;2.75;;;1.83;;
12816;SDS011;6473;51.552;6.716;2023-05-19T08:39:03;7.88;;;2.17;;
12816;SDS011;6473;51.552;6.716;2023-05-19T08:41:30;5.20;;;2.00;;
12816;SDS011;6473;51.552;6.716;2023-05-19T08:43:57;3.80;;;1.83;;
12816;SDS011;6473;51.552;6.716;2023-05-19T08:46:26;6.65;;;2.42;;
12816;SDS011;6473;51.552;6.716;2023-05-19T08:48:57;6.68;;;1.98;;
12816;SDS011;6473;51.552;6.716;2023-05-19T08:51:30;5.40;;;1.70;;
12816;SDS011;6473;51.552;6.716;2023-05-19T08:54:03;7.43;;;2.08;;
12816;SDS011;6473;51.552;6.716;2023-05-19T08:56:38;2.50;;;1.65;;
12816;SDS011;6473;51.552;6.716;2023-05-19T08:59:05;5.60;;;2.03;;
12816;SDS011;6473;51.552;6.716;2023-05-19T09:01:35;3.65;;;1.88;;
12816;SDS011;6473;51.552;6.716;2023-05-19T09:04:03;2.85;;;1.60;;
12816;SDS011;6473;51.552;6.716;2023-05-19T09:06:31;5.93;;;1.75;;
12816;SDS011;6473;51.552;6.716;2023-05-19T09:08:57;4.40;;;1.80;;
12816;SDS011;6473;51.552;6.716;2023-05-19T09:11:24;2.47;;;1.77;;
12816;SDS011;6473;51.552;6.716;2023-05-19T09:13:51;5.43;;;1.65;;
12816;SDS011;6473;51.552;6.716;2023-05-19T09:16:18;3.85;;;1.83;;
12816;SDS011;6473;51.552;6.716;2023-05-19T09:18:54;3.65;;;1.60;;
12816;SDS011;6473;51.552;6.716;2023-05-19T09:21:25;5.53;;;1.80;;
12816;SDS011;6473;51.552;6.716;2023-05-19T09:23:55;3.40;;;1.80;;
12816;SDS011;6473;51.552;6.716;2023-05-19T09:26:22;2.65;;;1.50;;
12816;SDS011;6473;51.552;6.716;2023-05-19T09:28:49;5.70;;;1.73;;
12816;SDS011;6473;51.552;6.716;2023-05-19T09:31:16;3.08;;;1.50;;
12816;SDS011;6473;51.552;6.716;2023-05-19T09:33:43;4.45;;;1.63;;
12816;SDS011;6473;51.552;6.716;2023-05-19T09:36:11;4.75;;;1.98;;
12816;SDS011;6473;51.552;6.716;2023-05-19T09:38:38;4.13;;;1.58;;
12816;SDS011;6473;51.552;6.716;2023-05-19T09:41:06;3.78;;;1.70;;
12816;SDS011;6473;51.552;6.716;2023-05-19T09:43:33;2.78;;;1.75;;
12816;SDS011;6473;51.552;6.716;2023-05-19T09:46:02;11.90;;;2.22;;
12816;SDS011;6473;51.552;6.716;2023-05-19T09:48:30;4.65;;;1.80;;
12816;SDS011;6473;51.552;6.716;2023-05-19T09:50:56;2.95;;;1.55;;
12816;SDS011;6473;51.552;6.716;2023-05-19T09:53:27;4.57;;;1.67;;
12816;SDS011;6473;51.552;6.716;2023-05-19T09:55:56;4.82;;;1.95;;
12816;SDS011;6473;51.552;6.716;2023-05-19T09:58:23;5.85;;;1.88;;
12816;SDS011;6473;51.552;6.716;2023-05-19T10:00:51;4.93;;;1.90;;
12816;SDS011;6473;51.552;6.716;2023-05-19T10:03:19;4.68;;;1.75;;
12816;SDS011;6473;51.552;6.716;2023-05-19T10:05:48;2.88;;;1.65;;
12816;SDS011;6473;51.552;6.716;2023-05-19T10:08:16;4.07;;;1.77;;
12816;SDS011;6473;51.552;6.716;2023-05-19T10:10:45;7.93;;;2.05;;
12816;SDS011;6473;51.552;6.716;2023-05-19T10:13:12;2.90;;;1.48;;
12816;SDS011;6473;51.552;6.716;2023-05-19T10:15:39;4.75;;;2.20;;
12816;SDS011;6473;51.552;6.716;2023-05-19T10:18:07;4.63;;;1.98;;
12816;SDS011;6473;51.552;6.716;2023-05-19T10:20:35;2.72;;;1.90;;
12816;SDS011;6473;51.552;6.716;2023-05-19T10:23:02;2.97;;;1.90;;
12816;SDS011;6473;51.552;6.716;2023-05-19T10:25:29;2.95;;;1.80;;
12816;SDS011;6473;51.552;6.716;2023-05-19T10:28:00;3.72;;;1.65;;
12816;SDS011;6473;51.552;6.716;2023-05-19T10:30:31;7.22;;;2.40;;
12816;SDS011;6473;51.552;6.716;2023-05-19T10:33:00;5.22;;;1.65;;
12816;SDS011;6473;51.552;6.716;2023-05-19T10:35:51;2.95;;;1.92;;
12816;SDS011;6473;51.552;6.716;2023-05-19T10:38:32;3.40;;;1.85;;
12816;SDS011;6473;51.552;6.716;2023-05-19T10:41:09;4.07;;;2.20;;
12816;SDS011;6473;51.552;6.716;2023-05-19T10:43:48;2.90;;;1.90;;
12816;SDS011;6473;51.552;6.716;2023-05-19T10:46:21;4.43;;;2.25;;
12816;SDS011;6473;51.552;6.716;2023-05-19T10:48:49;4.28;;;2.00;;
12816;SDS011;6473;51.552;6.716;2023-05-19T10:51:17;4.68;;;1.70;;
12816;SDS011;6473;51.552;6.716;2023-05-19T10:53:44;3.30;;;1.90;;
12816;SDS011;6473;51.552;6.716;2023-05-19T10:56:11;4.68;;;2.67;;
12816;SDS011;6473;51.552;6.716;2023-05-19T10:58:55;4.75;;;2.05;;
12816;SDS011;6473;51.552;6.716;2023-05-19T11:01:22;3.40;;;2.22;;
12816;SDS011;6473;51.552;6.716;2023-05-19T11:03:56;2.88;;;2.10;;
12816;SDS011;6473;51.552;6.716;2023-05-19T11:06:26;3.90;;;2.17;;
12816;SDS011;6473;51.552;6.716;2023-05-19T11:08:55;2.90;;;2.00;;
12816;SDS011;6473;51.552;6.716;2023-05-19T11:11:24;5.82;;;2.20;;
12816;SDS011;6473;51.552;6.716;2023-05-19T11:13:52;4.50;;;2.30;;
12816;SDS011;6473;51.552;6.716;2023-05-19T11:16:26;4.65;;;2.00;;
12816;SDS011;6473;51.552;6.716;2023-05-19T11:18:54;3.22;;;2.15;;
12816;SDS011;6473;51.552;6.716;2023-05-19T11:21:21;5.88;;;2.83;;
12816;SDS011;6473;51.552;6.716;2023-05-19T11:23:49;3.90;;;2.40;;
12816;SDS011;6473;51.552;6.716;2023-05-19T11:29:08;6.88;;;2.50;;
12816;SDS011;6473;51.552;6.716;2023-05-19T11:31:37;4.10;;;2.30;;
12816;SDS011;6473;51.552;6.716;2023-05-19T11:34:04;3.20;;;2.08;;
12816;SDS011;6473;51.552;6.716;2023-05-19T11:36:32;5.45;;;2.40;;
12816;SDS011;6473;51.552;6.716;2023-05-19T11:39:01;5.60;;;2.20;;
12816;SDS011;6473;51.552;6.716;2023-05-19T11:41:30;4.95;;;2.40;;
12816;SDS011;6473;51.552;6.716;2023-05-19T11:43:56;3.67;;;2.10;;
12816;SDS011;6473;51.552;6.716;2023-05-19T11:46:23;16.92;;;3.70;;
12816;SDS011;6473;51.552;6.716;2023-05-19T11:48:52;7.85;;;2.60;;
12816;SDS011;6473;51.552;6.716;2023-05-19T11:51:20;3.60;;;2.20;;
12816;SDS011;6473;51.552;6.716;2023-05-19T11:53:48;3.20;;;2.08;;
12816;SDS011;6473;51.552;6.716;2023-05-19T11:56:15;3.38;;;2.00;;
12816;SDS011;6473;51.552;6.716;2023-05-19T11:58:42;8.77;;;2.65;;
12816;SDS011;6473;51.552;6.716;2023-05-19T12:01:09;3.83;;;2.10;;
12816;SDS011;6473;51.552;6.716;2023-05-19T12:03:36;4.45;;;2.00;;
12816;SDS011;6473;51.552;6.716;2023-05-19T12:06:05;1.98;;;1.77;;
12816;SDS011;6473;51.552;6.716;2023-05-19T12:08:33;3.85;;;2.40;;
12816;SDS011;6473;51.552;6.716;2023-05-19T12:11:01;2.47;;;1.90;;
12816;SDS011;6473;51.552;6.716;2023-05-19T12:13:28;2.85;;;1.98;;
12816;SDS011;6473;51.552;6.716;2023-05-19T12:15:58;3.15;;;2.20;;
12816;SDS011;6473;51.552;6.716;2023-05-19T12:18:26;2.45;;;2.08;;
12816;SDS011;6473;51.552;6.716;2023-05-19T12:20:54;5.40;;;1.92;;
12816;SDS011;6473;51.552;6.716;2023-05-19T12:23:23;3.20;;;2.08;;
12816;SDS011;6473;51.552;6.716;2023-05-19T12:25:50;3.03;;;2.05;;
12816;SDS011;6473;51.552;6.716;2023-05-19T12:28:17;3.50;;;2.15;;
12816;SDS011;6473;51.552;6.716;2023-05-19T12:30:46;2.15;;;1.75;;
12816;SDS011;6473;51.552;6.716;2023-05-19T12:33:13;3.70;;;2.20;;
12816;SDS011;6473;51.552;6.716;2023-05-19T12:35:41;5.47;;;2.78;;
12816;SDS011;6473;51.552;6.716;2023-05-19T12:38:08;4.47;;;1.92;;
12816;SDS011;6473;51.552;6.716;2023-05-19T12:40:36;4.03;;;1.88;;
12816;SDS011;6473;51.552;6.716;2023-05-19T12:43:06;2.97;;;1.73;;
12816;SDS011;6473;51.552;6.716;2023-05-19T12:45:33;6.30;;;2.67;;
12816;SDS011;6473;51.552;6.716;2023-05-19T12:48:01;2.00;;;1.70;;
12816;SDS011;6473;51.552;6.716;2023-05-19T12:50:29;3.42;;;1.95;;
12816;SDS011;6473;51.552;6.716;2023-05-19T12:52:56;3.63;;;2.00;;
12816;SDS011;6473;51.552;6.716;2023-05-19T12:55:23;2.65;;;1.65;;
12816;SDS011;6473;51.552;6.716;2023-05-19T12:57:52;3.75;;;1.80;;
12816;SDS011;6473;51.552;6.716;2023-05-19T13:00:22;3.83;;;1.95;;
12816;SDS011;6473;51.552;6.716;2023-05-19T13:02:56;3.40;;;1.70;;
12816;SDS011;6473;51.552;6.716;2023-05-19T13:05:25;6.20;;;2.35;;
12816;SDS011;6473;51.552;6.716;2023-05-19T13:07:53;4.15;;;2.00;;
12816;SDS011;6473;51.552;6.716;2023-05-19T13:10:24;3.33;;;1.80;;
12816;SDS011;6473;51.552;6.716;2023-05-19T13:12:54;2.88;;;2.00;;
12816;SDS011;6473;51.552;6.716;2023-05-19T13:15:21;4.93;;;2.17;;
12816;SDS011;6473;51.552;6.716;2023-05-19T13:17:49;3.97;;;2.08;;
12816;SDS011;6473;51.552;6.716;2023-05-19T13:20:16;3.83;;;2.05;;
12816;SDS011;6473;51.552;6.716;2023-05-19T13:22:43;2.92;;;2.40;;
12816;SDS011;6473;51.552;6.716;2023-05-19T13:25:10;4.00;;;2.20;;
12816;SDS011;6473;51.552;6.716;2023-05-19T13:27:37;4.97;;;2.33;;
12816;SDS011;6473;51.552;6.716;2023-05-19T13:30:05;2.60;;;2.03;;
12816;SDS011;6473;51.552;6.716;2023-05-19T13:32:33;5.68;;;2.55;;
12816;SDS011;6473;51.552;6.716;2023-05-19T13:35:00;3.40;;;1.90;;
12816;SDS011;6473;51.552;6.716;2023-05-19T13:37:27;3.25;;;2.20;;
12816;SDS011;6473;51.552;6.716;2023-05-19T13:39:54;2.47;;;1.98;;
12816;SDS011;6473;51.552;6.716;2023-05-19T13:42:21;7.32;;;2.50;;
12816;SDS011;6473;51.552;6.716;2023-05-19T13:44:49;3.90;;;2.42;;
12816;SDS011;6473;51.552;6.716;2023-05-19T13:47:21;3.75;;;2.20;;
12816;SDS011;6473;51.552;6.716;2023-05-19T13:49:49;2.25;;;2.05;;
12816;SDS011;6473;51.552;6.716;2023-05-19T13:52:16;3.85;;;2.03;;
12816;SDS011;6473;51.552;6.716;2023-05-19T13:54:43;4.03;;;2.20;;
12816;SDS011;6473;51.552;6.716;2023-05-19T13:57:13;4.28;;;2.00;;
12816;SDS011;6473;51.552;6.716;2023-05-19T13:59:40;4.00;;;2.25;;
12816;SDS011;6473;51.552;6.716;2023-05-19T14:02:08;5.28;;;2.20;;
12816;SDS011;6473;51.552;6.716;2023-05-19T14:04:36;3.38;;;2.10;;
12816;SDS011;6473;51.552;6.716;2023-05-19T14:07:04;3.53;;;2.25;;
12816;SDS011;6473;51.552;6.716;2023-05-19T14:09:31;5.85;;;2.50;;
12816;SDS011;6473;51.552;6.716;2023-05-19T14:11:58;2.75;;;1.98;;
12816;SDS011;6473;51.552;6.716;2023-05-19T14:14:25;4.63;;;2.30;;
12816;SDS011;6473;51.552;6.716;2023-05-19T14:16:52;6.05;;;2.50;;
12816;SDS011;6473;51.552;6.716;2023-05-19T14:19:19;3.10;;;2.10;;
12816;SDS011;6473;51.552;6.716;2023-05-19T14:21:48;3.13;;;2.30;;
12816;SDS011;6473;51.552;6.716;2023-05-19T14:24:15;6.47;;;2.40;;
12816;SDS011;6473;51.552;6.716;2023-05-19T14:26:42;2.53;;;1.83;;
12816;SDS011;6473;51.552;6.716;2023-05-19T14:29:09;6.97;;;2.55;;
12816;SDS011;6473;51.552;6.716;2023-05-19T14:31:36;5.03;;;2.30;;
12816;SDS011;6473;51.552;6.716;2023-05-19T14:34:02;3.92;;;2.20;;
12816;SDS011;6473;51.552;6.716;2023-05-19T14:36:29;4.75;;;2.47;;
12816;SDS011;6473;51.552;6.716;2023-05-19T14:38:58;3.55;;;2.08;;
12816;SDS011;6473;51.552;6.716;2023-05-19T14:41:25;5.55;;;2.70;;
12816;SDS011;6473;51.552;6.716;2023-05-19T14:43:52;5.22;;;2.67;;
12816;SDS011;6473;51.552;6.716;2023-05-19T14:46:19;3.70;;;2.00;;
12816;SDS011;6473;51.552;6.716;2023-05-19T14:48:46;4.50;;;2.45;;
12816;SDS011;6473;51.552;6.716;2023-05-19T14:51:12;5.55;;;2.47;;
12816;SDS011;6473;51.552;6.716;2023-05-19T14:53:39;3.75;;;2.20;;
12816;SDS011;6473;51.552;6.716;2023-05-19T14:56:08;2.22;;;2.00;;
12816;SDS011;6473;51.552;6.716;2023-05-19T14:58:34;4.63;;;2.38;;
12816;SDS011;6473;51.552;6.716;2023-05-19T15:01:01;5.80;;;2.97;;
12816;SDS011;6473;51.552;6.716;2023-05-19T15:03:28;3.72;;;2.10;;
12816;SDS011;6473;51.552;6.716;2023-05-19T15:05:55;3.25;;;2.15;;
12816;SDS011;6473;51.552;6.716;2023-05-19T15:08:22;4.85;;;2.60;;
12816;SDS011;6473;51.552;6.716;2023-05-19T15:10:49;3.15;;;2.28;;
12816;SDS011;6473;51.552;6.716;2023-05-19T15:13:17;3.95;;;2.30;;
12816;SDS011;6473;51.552;6.716;2023-05-19T15:15:45;3.50;;;2.28;;